Sandy Lake Airport
CZSJ : rendu visible

Aérodrome :











RETROUVEZ-NOUS SUR...

 
LOGIN :

S'inscrire | Disclaimer

   EN    FR    IT 

 









Légende :    VFR   VFR Marginal   IFR   IFR Intensif   IFR Très Intensif
Visi : 
Plafond : 
>= 8 km
>= 3000ft
5 à 8 km
1000 à 3000 ft
1500m à 5 km
500 à 1000 ft
800 à 1500m
200 à 500 ft
< 800m
< 200 ft
Symboles :   Orages  Brouillard  Fortes neiges  Fortes précipitations  Vent > 20 kt






- Altitude de l'aérodrome : 951 ft
- Code IATA : ZSJ


CZSJ - Sandy Lake

DERNIER METAR :
  • 162100Z AUTO VRB02KT 3SM -SN OVC023 M02/M02 A2970 RMK ICG PAST HR SLP078

METARs EXPIRÉS :
  • 162039Z AUTO 15002KT 4SM -SN OVC023 M02/M03 A2970 RMK ICG PAST HR SLP080
  • 162035Z AUTO 16003KT 9SM -SN OVC023 M02/M03 A2970 RMK ICG PAST HR SLP081
  • 162000Z AUTO 16004KT 110V190 8SM -SN OVC023 M02/M03 A2971 RMK ICG SLP082
  • 161942Z AUTO 16004KT 9SM -SN OVC023 M02/M03 A2971 RMK ICG SLP083
  • 161922Z AUTO 16005KT 9SM -SN BKN025 OVC033 M02/M03 A2972 RMK ICG SLP085
  • 161900Z AUTO 18003KT 150V220 4SM -SN FEW025 OVC033 M02/M03 A2972 RMK ICG PAST HR SLP089
  • 161847Z AUTO 16006KT 5SM -SN OVC035 M02/M04 A2972 RMK ICG PAST HR SLP089
  • 161832Z AUTO 17006KT 140V210 9SM -SN BKN035 OVC055 M02/M04 A2973 RMK ICG PAST HR SLP090
  • 161826Z AUTO 18006KT 9SM -SN -FZUP BKN035 OVC055 M02/M04 A2973 RMK ICG INTMT SLP092
  • 161817Z AUTO 18006KT 130V200 8SM -SN -FZUP SCT037 OVC055 M02/M04 A2973 RMK ICG INTMT SLP092

TAF TAF CZSJ
Valide du 16 à 18h jusqu'au 16 à 23h UTC


161738Z 1618/1623 17006KT P6SM FZRA OVC050
TEMPO 1618/1623 2SM -SN OVC006 RMK FCST BASED ON AUTO OBS. NXT FCST WILL BE ISSUED AT 171045Z



MET'MAP, la Météo Aéronautique d'un coup d'oeil ! - Copyright ORBIFLY Décembre 2007 - Disclaimer

ORBIFLY MET'MAP TEAM :

Programmation & Développement : Alexandra Zaïnal
Conception & Développement : Baudouin d'Aumeries
Co-Programmation & Développement : Marc-Olivier Méhu
Soutien technique & logistique : Manuel Goepfert

Contact : metmap@orbifly.com




SOURCES & CREDITS :

   NOAA       Earth
Advisory